createdAt,value
2022-12-19T00:01:35.918Z,15.50
2022-12-19T00:04:08.352Z,16.17
2022-12-19T00:06:36.228Z,18.13
2022-12-19T00:09:03.430Z,17.03
2022-12-19T00:11:30.366Z,18.57
2022-12-19T00:13:57.500Z,17.07
2022-12-19T00:16:25.881Z,16.30
2022-12-19T00:18:55.276Z,17.43
2022-12-19T00:21:23.983Z,17.40
2022-12-19T00:23:53.304Z,16.73
2022-12-19T00:26:20.908Z,17.43
2022-12-19T00:28:50.013Z,16.07
2022-12-19T00:31:17.259Z,17.03
2022-12-19T00:33:44.144Z,16.63
2022-12-19T00:36:12.626Z,16.77
2022-12-19T00:38:39.373Z,17.07
2022-12-19T00:41:08.525Z,16.33
2022-12-19T00:43:35.276Z,17.40
2022-12-19T00:46:03.996Z,17.23
2022-12-19T00:48:31.534Z,17.37
2022-12-19T00:51:06.723Z,15.97
2022-12-19T00:53:34.270Z,16.43
2022-12-19T00:56:05.563Z,17.30
2022-12-19T00:58:35.711Z,15.53
2022-12-19T01:01:09.307Z,16.83
2022-12-19T01:03:36.306Z,15.97
2022-12-19T01:06:03.610Z,16.80
2022-12-19T01:08:30.352Z,15.67
2022-12-19T01:10:58.094Z,16.73
2022-12-19T01:13:25.530Z,16.27
2022-12-19T01:15:52.282Z,15.27
2022-12-19T01:18:19.042Z,17.13
2022-12-19T01:20:48.861Z,16.40
2022-12-19T01:23:18.273Z,16.57
2022-12-19T01:25:51.257Z,15.47
2022-12-19T01:28:20.109Z,17.37
2022-12-19T01:30:50.860Z,17.10
2022-12-19T01:33:21.602Z,16.23
2022-12-19T01:35:50.606Z,18.13
2022-12-19T01:38:21.014Z,16.43
2022-12-19T01:40:56.179Z,16.83
2022-12-19T01:43:23.699Z,16.90
2022-12-19T01:45:54.701Z,17.73
2022-12-19T01:48:26.612Z,18.93
2022-12-19T01:51:01.714Z,18.37
2022-12-19T01:53:48.989Z,18.47
2022-12-19T01:56:16.665Z,19.00
2022-12-19T01:58:47.804Z,19.73
2022-12-19T02:01:15.424Z,19.20
2022-12-19T02:03:42.190Z,20.17
2022-12-19T02:06:11.473Z,19.70
2022-12-19T02:08:40.704Z,21.20
2022-12-19T02:11:07.440Z,20.03
2022-12-19T02:13:34.242Z,19.60
2022-12-19T02:16:29.034Z,18.03
2022-12-19T02:19:24.006Z,19.17
2022-12-19T02:22:02.116Z,19.00
2022-12-19T02:24:40.288Z,18.30
2022-12-19T02:27:24.977Z,17.43
2022-12-19T02:30:10.497Z,17.60
2022-12-19T02:32:43.354Z,18.13
2022-12-19T02:35:42.663Z,18.20
2022-12-19T02:38:15.493Z,17.30
2022-12-19T02:41:03.170Z,17.67
2022-12-19T02:43:30.911Z,18.93
2022-12-19T02:45:57.704Z,18.60
2022-12-19T02:48:24.571Z,18.00
2022-12-19T02:50:51.339Z,18.53
2022-12-19T02:53:22.322Z,18.07
2022-12-19T02:56:10.490Z,17.97
2022-12-19T02:58:57.873Z,18.60
2022-12-19T03:01:31.812Z,18.60
2022-12-19T03:04:31.193Z,17.97
2022-12-19T03:07:03.879Z,19.70
2022-12-19T03:09:49.037Z,18.40
2022-12-19T03:12:21.631Z,19.03
2022-12-19T03:14:48.352Z,18.90
2022-12-19T03:17:15.087Z,19.43
2022-12-19T03:19:44.286Z,19.97
2022-12-19T03:22:11.126Z,18.97
2022-12-19T03:24:37.856Z,18.50
2022-12-19T03:27:19.921Z,20.13
2022-12-19T03:29:52.252Z,19.30
2022-12-19T03:32:19.064Z,19.07
2022-12-19T03:34:55.104Z,19.70
2022-12-19T03:37:28.137Z,20.10
2022-12-19T03:39:57.027Z,19.53
2022-12-19T03:42:45.544Z,18.30
2022-12-19T03:45:12.850Z,19.23
2022-12-19T03:47:42.232Z,19.80
2022-12-19T03:50:09.119Z,18.93
2022-12-19T03:52:54.274Z,18.57
2022-12-19T03:55:36.340Z,17.73
2022-12-19T03:58:09.686Z,18.60
2022-12-19T04:00:37.906Z,19.80
2022-12-19T04:03:04.778Z,20.47
2022-12-19T04:05:31.564Z,18.87
2022-12-19T04:08:00.833Z,19.17
2022-12-19T04:10:27.620Z,20.07
2022-12-19T04:12:58.172Z,20.17
2022-12-19T04:15:54.210Z,19.23
2022-12-19T04:18:21.072Z,19.10
2022-12-19T04:20:55.368Z,20.07
2022-12-19T04:23:28.718Z,19.63
2022-12-19T04:25:59.559Z,19.93
2022-12-19T04:28:34.836Z,19.17
2022-12-19T04:31:01.641Z,19.43
2022-12-19T04:33:28.380Z,18.77
2022-12-19T04:35:55.138Z,19.63
2022-12-19T04:38:22.190Z,20.47
2022-12-19T04:40:51.617Z,20.80
2022-12-19T04:43:18.380Z,19.90
2022-12-19T04:45:45.173Z,19.40
2022-12-19T04:48:12.076Z,18.50
2022-12-19T04:50:41.280Z,19.17
2022-12-19T04:53:10.293Z,19.53
2022-12-19T04:55:41.273Z,19.73
2022-12-19T04:58:08.027Z,19.50
2022-12-19T05:00:42.114Z,20.03
2022-12-19T05:03:09.293Z,19.47
2022-12-19T05:05:36.083Z,20.00
2022-12-19T05:08:02.809Z,20.23
2022-12-19T05:10:29.555Z,20.47
2022-12-19T05:12:58.799Z,20.20
2022-12-19T05:15:25.540Z,19.93
2022-12-19T05:17:52.263Z,20.90
2022-12-19T05:20:19.038Z,19.47
2022-12-19T05:22:45.775Z,20.90
2022-12-19T05:25:12.673Z,20.93
2022-12-19T05:27:39.416Z,21.73
2022-12-19T05:30:06.813Z,21.43
2022-12-19T05:32:34.830Z,21.10
2022-12-19T05:35:01.572Z,20.93
2022-12-19T05:37:30.827Z,21.80
2022-12-19T05:39:57.591Z,21.40
2022-12-19T05:42:25.599Z,21.50
2022-12-19T05:44:54.619Z,20.90
2022-12-19T05:47:21.418Z,21.53
2022-12-19T05:49:50.678Z,20.60
2022-12-19T05:52:17.441Z,20.97
2022-12-19T05:54:46.523Z,21.37
2022-12-19T05:57:13.245Z,21.17
2022-12-19T05:59:42.430Z,23.07
2022-12-19T06:02:09.230Z,21.77
2022-12-19T06:04:36.027Z,22.43
2022-12-19T06:07:03.032Z,21.97
2022-12-19T06:09:29.863Z,21.50
2022-12-19T06:11:56.636Z,21.50
2022-12-19T06:14:23.420Z,22.40
2022-12-19T06:16:51.433Z,21.87
2022-12-19T06:19:21.008Z,19.90
2022-12-19T06:21:48.611Z,22.47
2022-12-19T06:24:15.742Z,21.33
2022-12-19T06:26:42.724Z,21.20
2022-12-19T06:29:14.232Z,22.00
2022-12-19T06:31:40.997Z,21.23
2022-12-19T06:34:10.580Z,21.37
2022-12-19T06:36:37.457Z,21.43
2022-12-19T06:39:04.433Z,21.27
2022-12-19T06:41:49.493Z,21.37
2022-12-19T06:44:17.857Z,22.80
2022-12-19T06:46:44.725Z,22.10
2022-12-19T06:49:11.706Z,22.57
2022-12-19T06:51:38.539Z,21.87
2022-12-19T06:54:05.477Z,21.77
2022-12-19T06:56:39.227Z,20.80
2022-12-19T06:59:06.519Z,21.97
2022-12-19T07:01:57.167Z,21.40
2022-12-19T07:04:29.610Z,22.30
2022-12-19T07:06:56.759Z,20.97
2022-12-19T07:09:25.682Z,20.10
2022-12-19T07:11:52.471Z,20.70
2022-12-19T07:14:19.303Z,19.47
2022-12-19T07:16:48.663Z,21.07
2022-12-19T07:19:15.486Z,20.43
2022-12-19T07:21:44.806Z,22.53
2022-12-19T07:24:12.168Z,19.90
2022-12-19T07:26:38.982Z,21.50
2022-12-19T07:29:05.837Z,20.30
2022-12-19T07:31:35.107Z,21.27
2022-12-19T07:34:01.976Z,21.30
2022-12-19T07:36:29.253Z,21.53
2022-12-19T07:38:56.072Z,22.67
2022-12-19T07:41:22.915Z,19.97
2022-12-19T07:43:49.733Z,20.30
2022-12-19T07:46:16.668Z,21.97
2022-12-19T07:48:43.527Z,23.10
2022-12-19T07:51:12.535Z,22.00
2022-12-19T07:53:39.379Z,20.97
2022-12-19T07:56:06.624Z,21.37
2022-12-19T07:58:33.605Z,21.87
2022-12-19T08:01:03.677Z,22.30
2022-12-19T08:03:31.815Z,20.67
2022-12-19T08:06:02.508Z,21.40
2022-12-19T08:08:30.480Z,21.77
2022-12-19T08:11:27.376Z,20.87
2022-12-19T08:13:56.905Z,19.83
2022-12-19T08:16:27.274Z,20.43
2022-12-19T08:18:54.077Z,19.53
2022-12-19T08:21:23.435Z,19.87
2022-12-19T08:23:52.130Z,20.33
2022-12-19T08:26:25.473Z,20.90
2022-12-19T08:28:58.899Z,19.97
2022-12-19T08:31:27.330Z,19.20
2022-12-19T08:33:55.002Z,21.73
2022-12-19T08:36:23.971Z,20.87
2022-12-19T08:38:52.047Z,20.60
2022-12-19T08:41:21.162Z,19.43
2022-12-19T08:43:56.303Z,20.37
2022-12-19T08:46:23.443Z,20.47
2022-12-19T08:48:52.971Z,20.07
2022-12-19T08:51:22.405Z,20.37
2022-12-19T08:53:49.261Z,19.83
2022-12-19T08:56:20.776Z,20.07
2022-12-19T08:58:50.672Z,19.10
2022-12-19T09:01:20.761Z,19.80
2022-12-19T09:04:09.603Z,20.07
2022-12-19T09:06:34.966Z,21.03
2022-12-19T09:09:04.806Z,19.90
2022-12-19T09:11:31.809Z,21.00
2022-12-19T09:13:58.723Z,21.33
2022-12-19T09:16:26.732Z,20.73
2022-12-19T09:18:58.837Z,21.10
2022-12-19T09:21:27.383Z,21.20
2022-12-19T09:23:55.291Z,20.87
2022-12-19T09:26:23.192Z,21.23
2022-12-19T09:28:50.977Z,20.60
2022-12-19T09:31:19.861Z,21.73
2022-12-19T09:33:46.956Z,21.47
2022-12-19T09:36:18.981Z,21.47
2022-12-19T09:38:45.903Z,20.50
2022-12-19T09:41:34.506Z,21.87
2022-12-19T09:44:20.178Z,21.20
2022-12-19T09:46:51.076Z,21.90
2022-12-19T09:49:29.853Z,20.40
2022-12-19T09:52:17.104Z,21.13
2022-12-19T09:55:02.466Z,20.53
2022-12-19T09:58:08.459Z,22.00
2022-12-19T10:00:40.977Z,21.33
2022-12-19T10:03:16.855Z,20.20
2022-12-19T10:05:45.603Z,21.40
2022-12-19T10:08:56.959Z,21.40
2022-12-19T10:12:45.399Z,20.83
2022-12-19T10:15:00.208Z,19.67
2022-12-19T10:17:48.087Z,19.90
2022-12-19T10:20:27.903Z,19.73
2022-12-19T10:23:12.701Z,18.80
2022-12-19T10:25:55.217Z,19.13
2022-12-19T10:29:02.414Z,20.33
2022-12-19T10:31:47.539Z,20.00
2022-12-19T10:34:50.018Z,20.03
2022-12-19T10:37:42.373Z,17.67
2022-12-19T10:40:28.322Z,19.30
2022-12-19T10:43:15.295Z,17.57
2022-12-19T10:45:57.651Z,19.17
2022-12-19T10:48:30.395Z,19.37
2022-12-19T10:51:06.170Z,17.97
2022-12-19T10:53:36.796Z,19.63
2022-12-19T10:56:13.245Z,18.50
2022-12-19T10:58:43.110Z,20.27
2022-12-19T11:01:16.953Z,18.70
2022-12-19T11:03:46.987Z,19.50
2022-12-19T11:06:40.733Z,18.43
2022-12-19T11:09:20.894Z,18.83
2022-12-19T11:14:25.822Z,18.77
2022-12-19T11:20:22.274Z,17.87
2022-12-19T11:26:52.010Z,17.47
2022-12-19T11:29:19.697Z,18.00
2022-12-19T11:29:30.013Z,18.00
2022-12-19T11:30:05.359Z,18.00
2022-12-19T11:30:08.656Z,18.20
2022-12-19T11:34:26.999Z,17.67
2022-12-19T11:37:24.722Z,19.90
2022-12-19T11:40:01.435Z,18.83
2022-12-19T11:42:35.763Z,17.10
2022-12-19T11:45:24.895Z,17.53
2022-12-19T11:48:03.126Z,17.63
2022-12-19T11:50:35.445Z,17.90
2022-12-19T11:53:29.326Z,18.83
2022-12-19T11:55:58.554Z,17.87
2022-12-19T11:58:26.524Z,18.03
2022-12-19T12:00:59.042Z,18.07
2022-12-19T12:04:02.570Z,18.07
2022-12-19T12:06:34.750Z,17.43
2022-12-19T12:11:29.087Z,17.80
2022-12-19T12:20:04.369Z,18.17
2022-12-19T12:26:30.972Z,17.87
2022-12-19T12:31:05.337Z,18.37
2022-12-19T12:31:15.936Z,17.57
2022-12-19T12:31:53.740Z,16.97
2022-12-19T12:31:57.250Z,18.63
2022-12-19T12:35:32.824Z,17.63
2022-12-19T12:38:26.277Z,17.03
2022-12-19T12:41:00.709Z,18.33
2022-12-19T12:43:52.224Z,18.27
2022-12-19T12:46:30.192Z,18.27
2022-12-19T12:49:04.743Z,18.33
2022-12-19T12:51:34.583Z,18.40
2022-12-19T12:54:09.589Z,19.23
2022-12-19T12:56:36.582Z,18.37
2022-12-19T12:59:22.736Z,19.23
2022-12-19T13:01:56.099Z,17.73
2022-12-19T13:04:30.892Z,18.97
2022-12-19T13:07:35.701Z,18.77
2022-12-19T13:10:19.064Z,19.17
2022-12-19T13:13:14.281Z,18.80
2022-12-19T13:15:43.613Z,18.77
2022-12-19T13:18:33.608Z,19.67
2022-12-19T13:21:03.950Z,18.87
2022-12-19T13:23:34.966Z,18.80
2022-12-19T13:26:01.813Z,19.40
2022-12-19T13:28:28.968Z,18.17
2022-12-19T13:31:18.885Z,19.17
2022-12-19T13:33:56.443Z,18.57
2022-12-19T13:39:59.352Z,18.33
2022-12-19T13:40:08.739Z,18.37
2022-12-19T13:42:55.082Z,18.60
2022-12-19T13:45:36.964Z,18.90
2022-12-19T13:48:05.392Z,19.10
2022-12-19T13:50:40.690Z,19.10
2022-12-19T13:53:22.500Z,19.20
2022-12-19T13:55:49.513Z,18.23
2022-12-19T13:58:28.426Z,19.60
2022-12-19T14:01:01.312Z,18.37
2022-12-19T14:03:37.639Z,20.13
2022-12-19T14:06:30.196Z,18.97
2022-12-19T14:11:27.263Z,20.50
2022-12-19T14:13:47.233Z,19.93
2022-12-19T14:15:13.735Z,20.20
2022-12-19T14:17:40.895Z,19.10
2022-12-19T14:22:02.097Z,19.40
2022-12-19T14:23:10.253Z,19.93
2022-12-19T14:28:22.145Z,19.73
2022-12-19T14:28:42.139Z,20.17
2022-12-19T14:31:12.361Z,18.70
2022-12-19T14:34:11.072Z,21.13
2022-12-19T14:36:33.305Z,21.67
2022-12-19T14:39:22.942Z,21.50
2022-12-19T14:42:09.367Z,19.90
2022-12-19T14:53:08.677Z,19.97
2022-12-19T14:54:12.860Z,21.77
2022-12-19T14:54:21.444Z,21.10
2022-12-19T14:54:52.714Z,20.43
2022-12-19T14:56:45.134Z,21.13
2022-12-19T14:59:04.627Z,20.97
2022-12-19T15:01:33.255Z,19.67
2022-12-19T15:04:53.141Z,22.00
2022-12-19T15:07:11.815Z,21.17
2022-12-19T15:11:03.010Z,21.53
2022-12-19T15:14:48.562Z,21.43
2022-12-19T15:16:03.420Z,21.87
2022-12-19T15:18:35.598Z,21.20
2022-12-19T15:21:04.311Z,22.07
2022-12-19T15:23:33.812Z,21.60
2022-12-19T15:26:06.153Z,22.27
2022-12-19T15:28:43.096Z,22.83
2022-12-19T15:31:29.811Z,22.10
2022-12-19T15:36:43.711Z,22.87
2022-12-19T15:39:10.523Z,21.27
2022-12-19T15:41:37.372Z,22.30
2022-12-19T15:44:30.946Z,22.97
2022-12-19T15:46:58.502Z,22.33
2022-12-19T15:49:25.414Z,24.30
2022-12-19T15:51:54.455Z,22.60
2022-12-19T15:57:10.617Z,24.03
2022-12-19T15:59:39.268Z,23.60
2022-12-19T16:02:42.702Z,23.63
2022-12-19T16:05:16.954Z,22.57
2022-12-19T16:07:43.846Z,23.67
2022-12-19T16:10:13.830Z,22.03
2022-12-19T16:12:48.304Z,23.03
2022-12-19T16:15:26.181Z,23.40
2022-12-19T16:17:56.086Z,23.50
2022-12-19T16:20:29.298Z,22.97
2022-12-19T16:22:56.194Z,23.47
2022-12-19T16:25:24.101Z,24.37
2022-12-19T16:27:55.306Z,22.97
2022-12-19T16:30:24.499Z,23.67
2022-12-19T16:32:56.862Z,23.00
2022-12-19T16:36:03.196Z,24.30
2022-12-19T16:38:14.705Z,25.33
2022-12-19T16:40:41.636Z,25.03
2022-12-19T16:43:38.072Z,23.60
2022-12-19T16:46:05.966Z,23.97
2022-12-19T16:48:35.660Z,24.60
2022-12-19T16:51:02.631Z,24.10
2022-12-19T16:53:29.610Z,23.40
2022-12-19T16:55:56.638Z,23.20
2022-12-19T16:58:26.627Z,24.17
2022-12-19T17:00:56.140Z,23.57
2022-12-19T17:03:36.405Z,25.03
2022-12-19T17:06:05.990Z,25.83
2022-12-19T17:08:32.892Z,23.97
2022-12-19T17:10:59.761Z,23.87
2022-12-19T17:13:26.747Z,25.57
2022-12-19T17:15:58.231Z,24.33
2022-12-19T17:18:26.617Z,24.37
2022-12-19T17:20:56.063Z,24.17
2022-12-19T17:23:24.027Z,25.67
2022-12-19T17:25:51.058Z,24.60
2022-12-19T17:28:18.023Z,24.80
2022-12-19T17:30:49.789Z,26.77
2022-12-19T17:33:16.775Z,25.07
2022-12-19T17:35:45.746Z,25.10
2022-12-19T17:38:16.089Z,24.50
2022-12-19T17:40:43.210Z,24.47
2022-12-19T17:43:11.907Z,25.30
2022-12-19T17:45:38.856Z,25.80
2022-12-19T17:48:07.856Z,26.40
2022-12-19T17:50:39.183Z,25.27
2022-12-19T17:53:13.571Z,25.70
2022-12-19T17:55:42.995Z,26.57
2022-12-19T17:58:13.071Z,26.30
2022-12-19T18:00:42.180Z,25.17
2022-12-19T18:03:21.738Z,26.73
2022-12-19T18:05:51.511Z,26.47
2022-12-19T18:08:32.153Z,25.60
2022-12-19T18:11:03.162Z,26.53
2022-12-19T18:13:30.587Z,25.83
2022-12-19T18:16:01.585Z,27.27
2022-12-19T18:18:34.161Z,25.33
2022-12-19T18:21:01.068Z,25.93
2022-12-19T18:23:30.937Z,25.80
2022-12-19T18:26:02.372Z,26.77
2022-12-19T18:28:29.816Z,26.77
2022-12-19T18:31:04.263Z,25.03
2022-12-19T18:33:37.142Z,26.70
2022-12-19T18:36:07.114Z,26.73
2022-12-19T18:38:33.947Z,26.70
2022-12-19T18:41:01.395Z,26.67
2022-12-19T18:43:33.609Z,26.83
2022-12-19T18:46:00.417Z,25.10
2022-12-19T18:48:31.101Z,26.83
2022-12-19T18:51:00.661Z,28.03
2022-12-19T18:53:35.297Z,26.40
2022-12-19T18:56:03.335Z,28.33
2022-12-19T18:58:30.332Z,27.83
2022-12-19T19:01:00.612Z,27.73
2022-12-19T19:03:32.715Z,26.87
2022-12-19T19:05:59.719Z,27.17
2022-12-19T19:08:31.865Z,26.73
2022-12-19T19:10:58.821Z,27.53
2022-12-19T19:13:26.074Z,26.67
2022-12-19T19:15:56.502Z,27.43
2022-12-19T19:18:27.277Z,27.70
2022-12-19T19:21:00.454Z,27.17
2022-12-19T19:23:36.738Z,28.07
2022-12-19T19:26:03.605Z,26.83
2022-12-19T19:28:30.403Z,26.00
2022-12-19T19:30:57.723Z,28.00
2022-12-19T19:33:31.697Z,27.60
2022-12-19T19:36:02.570Z,28.67
2022-12-19T19:38:35.049Z,28.73
2022-12-19T19:41:04.518Z,27.03
2022-12-19T19:43:35.671Z,28.27
2022-12-19T19:46:02.710Z,28.07
2022-12-19T19:48:29.770Z,28.37
2022-12-19T19:50:56.910Z,29.07
2022-12-19T19:53:23.740Z,29.03
2022-12-19T19:56:03.973Z,29.33
2022-12-19T19:58:30.804Z,29.10
2022-12-19T20:00:57.882Z,27.03
2022-12-19T20:03:25.086Z,29.03
2022-12-19T20:05:59.653Z,28.93
2022-12-19T20:08:33.623Z,30.13
2022-12-19T20:11:05.678Z,27.60
2022-12-19T20:13:35.374Z,29.80
2022-12-19T20:16:12.767Z,33.00
2022-12-19T20:18:40.140Z,31.07
2022-12-19T20:21:13.234Z,28.27
2022-12-19T20:23:40.809Z,29.63
2022-12-19T20:26:11.406Z,28.27
2022-12-19T20:28:43.964Z,29.73
2022-12-19T20:31:15.030Z,29.57
2022-12-19T20:33:41.830Z,27.73
2022-12-19T20:36:10.025Z,27.67
2022-12-19T20:38:36.997Z,28.07
2022-12-19T20:41:03.992Z,28.30
2022-12-19T20:43:31.107Z,28.80
2022-12-19T20:46:06.041Z,27.50
2022-12-19T20:48:33.016Z,28.67
2022-12-19T20:51:02.430Z,27.97
2022-12-19T20:53:32.791Z,28.40
2022-12-19T20:56:00.239Z,29.53
2022-12-19T20:58:27.508Z,28.07
2022-12-19T21:00:58.367Z,27.23
2022-12-19T21:03:28.533Z,28.37
2022-12-19T21:05:57.126Z,28.97
2022-12-19T21:08:24.460Z,28.33
2022-12-19T21:10:51.505Z,27.57
2022-12-19T21:13:18.441Z,31.17
2022-12-19T21:15:45.364Z,30.00
2022-12-19T21:18:12.263Z,27.93
2022-12-19T21:20:41.332Z,28.47
2022-12-19T21:23:08.239Z,27.50
2022-12-19T21:25:37.167Z,27.13
2022-12-19T21:28:04.095Z,27.40
2022-12-19T21:30:30.914Z,27.50
2022-12-19T21:32:59.895Z,28.63
2022-12-19T21:35:26.727Z,29.17
2022-12-19T21:37:53.583Z,27.30
2022-12-19T21:40:20.574Z,28.97
2022-12-19T21:42:49.570Z,29.27
2022-12-19T21:45:16.666Z,27.77
2022-12-19T21:47:46.036Z,28.40
2022-12-19T21:50:14.562Z,28.13
2022-12-19T21:52:44.630Z,29.67
2022-12-19T21:55:11.489Z,28.97
2022-12-19T21:57:41.730Z,29.53
2022-12-19T22:00:10.040Z,28.13
2022-12-19T22:02:37.163Z,29.33
2022-12-19T22:05:09.672Z,27.90
2022-12-19T22:07:36.566Z,26.47
2022-12-19T22:10:06.364Z,28.17
2022-12-19T22:12:33.179Z,27.63
2022-12-19T22:15:04.752Z,29.37
2022-12-19T22:17:36.379Z,28.67
2022-12-19T22:20:03.415Z,28.33
2022-12-19T22:22:30.281Z,28.90
2022-12-19T22:24:59.606Z,27.57
2022-12-19T22:27:26.423Z,27.67
2022-12-19T22:29:53.265Z,27.40
2022-12-19T22:32:20.140Z,27.30
2022-12-19T22:34:48.296Z,27.53
2022-12-19T22:37:20.361Z,28.00
2022-12-19T22:39:47.229Z,26.53
2022-12-19T22:42:14.046Z,27.63
2022-12-19T22:44:45.522Z,27.20
2022-12-19T22:47:12.379Z,26.33
2022-12-19T22:49:39.244Z,27.67
2022-12-19T22:52:06.099Z,27.33
2022-12-19T22:54:32.959Z,27.47
2022-12-19T22:56:59.763Z,27.90
2022-12-19T22:59:26.614Z,28.13
2022-12-19T23:01:54.223Z,27.07
2022-12-19T23:04:25.861Z,27.40
2022-12-19T23:06:55.223Z,26.57
2022-12-19T23:09:22.065Z,26.97
2022-12-19T23:11:51.440Z,27.57
2022-12-19T23:14:18.708Z,27.03
2022-12-19T23:16:45.624Z,26.57
2022-12-19T23:19:13.225Z,27.30
2022-12-19T23:21:40.155Z,26.87
2022-12-19T23:24:09.490Z,28.40
2022-12-19T23:26:36.953Z,26.90
2022-12-19T23:29:12.012Z,27.70
2022-12-19T23:31:46.192Z,26.87
2022-12-19T23:34:15.788Z,27.03
2022-12-19T23:37:10.310Z,26.27
2022-12-19T23:39:32.166Z,25.33
2022-12-19T23:42:01.473Z,26.13
2022-12-19T23:44:28.620Z,27.80
2022-12-19T23:47:02.323Z,27.70
2022-12-19T23:49:32.679Z,26.83
2022-12-19T23:51:59.535Z,26.43
2022-12-19T23:54:26.401Z,28.60
2022-12-19T23:56:55.764Z,26.97
2022-12-19T23:59:23.074Z,26.00
